createdAt,value
2022-09-12T00:01:14.613Z,97063.50
2022-09-12T00:03:42.181Z,97065.47
2022-09-12T00:06:18.151Z,97064.38
2022-09-12T00:08:51.974Z,97054.00
2022-09-12T00:11:18.625Z,97059.09
2022-09-12T00:13:45.612Z,97054.88
2022-09-12T00:16:24.591Z,97056.91
2022-09-12T00:18:54.687Z,97048.94
2022-09-12T00:21:22.957Z,97056.66
2022-09-12T00:23:52.402Z,97060.06
2022-09-12T00:26:22.155Z,97059.72
2022-09-12T00:28:52.029Z,97055.91
2022-09-12T00:31:27.280Z,97047.16
2022-09-12T00:33:57.110Z,97047.75
2022-09-12T00:36:28.058Z,97040.19
2022-09-12T00:38:54.924Z,97040.94
2022-09-12T00:41:27.377Z,97044.56
2022-09-12T00:43:58.606Z,97042.91
2022-09-12T00:46:43.278Z,97050.13
2022-09-12T00:49:27.393Z,97044.59
2022-09-12T00:52:23.869Z,97040.16
2022-09-12T00:55:19.626Z,97040.09
2022-09-12T00:58:03.873Z,97030.31
2022-09-12T01:00:30.578Z,97028.00
2022-09-12T01:03:04.025Z,97024.94
2022-09-12T01:05:34.094Z,97034.38
2022-09-12T01:08:05.473Z,97024.25
2022-09-12T01:10:38.611Z,97028.63
2022-09-12T01:13:07.274Z,97025.06
2022-09-12T01:15:34.865Z,97025.31
2022-09-12T01:18:04.511Z,97036.28
2022-09-12T01:20:53.362Z,97037.78
2022-09-12T01:23:57.382Z,97034.75
2022-09-12T01:26:42.310Z,97021.03
2022-09-12T01:29:30.610Z,97027.47
2022-09-12T01:32:06.369Z,97020.09
2022-09-12T01:35:06.933Z,97026.34
2022-09-12T01:37:41.843Z,97025.06
2022-09-12T01:40:41.790Z,97024.22
2022-09-12T01:43:28.787Z,97027.94
2022-09-12T01:46:02.195Z,97025.41
2022-09-12T01:48:38.178Z,97021.56
2022-09-12T01:51:11.796Z,97020.03
2022-09-12T01:54:16.813Z,97011.47
2022-09-12T01:56:46.697Z,97018.19
2022-09-12T01:59:29.731Z,97016.59
2022-09-12T02:02:00.949Z,97009.94
2022-09-12T02:04:34.391Z,97009.16
2022-09-12T02:07:27.611Z,97012.41
2022-09-12T02:10:17.275Z,97010.94
2022-09-12T02:12:53.253Z,96998.69
2022-09-12T02:15:24.345Z,97001.06
2022-09-12T02:17:58.913Z,96999.56
2022-09-12T02:20:47.900Z,97012.97
2022-09-12T02:23:20.932Z,97012.13
2022-09-12T02:25:51.489Z,97016.56
2022-09-12T02:28:27.134Z,97003.47
2022-09-12T02:31:26.922Z,97006.25
2022-09-12T02:34:28.825Z,97012.78
2022-09-12T02:37:07.926Z,97015.16
2022-09-12T02:39:37.224Z,97019.09
2022-09-12T02:42:06.506Z,97000.16
2022-09-12T02:44:38.090Z,97006.06
2022-09-12T02:47:28.399Z,97009.97
2022-09-12T02:49:56.952Z,96999.88
2022-09-12T02:52:26.795Z,96996.72
2022-09-12T02:54:55.183Z,97006.53
2022-09-12T02:57:23.249Z,97000.56
2022-09-12T02:59:53.836Z,97004.81
2022-09-12T03:02:35.665Z,96992.06
2022-09-12T03:05:21.474Z,97001.16
2022-09-12T03:08:00.255Z,96991.06
2022-09-12T03:10:51.418Z,97001.91
2022-09-12T03:13:49.761Z,96995.66
2022-09-12T03:16:16.325Z,96998.03
2022-09-12T03:18:58.115Z,96992.25
2022-09-12T03:21:37.985Z,96999.72
2022-09-12T03:24:11.603Z,97012.13
2022-09-12T03:26:40.858Z,97008.22
2022-09-12T03:29:08.395Z,97001.81
2022-09-12T03:31:37.386Z,97000.31
2022-09-12T03:34:04.029Z,96998.44
2022-09-12T03:36:33.520Z,96998.63
2022-09-12T03:39:02.483Z,96998.53
2022-09-12T03:41:33.822Z,96983.03
2022-09-12T03:44:00.384Z,96979.91
2022-09-12T03:46:26.976Z,96995.97
2022-09-12T03:48:55.656Z,96992.47
2022-09-12T03:51:24.897Z,96994.44
2022-09-12T03:53:51.848Z,97001.78
2022-09-12T03:56:19.410Z,97011.53
2022-09-12T03:58:48.274Z,97018.34
2022-09-12T04:01:17.508Z,97010.59
2022-09-12T04:03:46.498Z,97015.63
2022-09-12T04:06:15.503Z,97012.50
2022-09-12T04:08:45.885Z,97008.25
2022-09-12T04:11:21.446Z,97003.22
2022-09-12T04:13:52.878Z,97006.88
2022-09-12T04:16:20.230Z,97003.28
2022-09-12T04:18:46.903Z,97005.69
2022-09-12T04:21:18.265Z,97005.28
2022-09-12T04:23:47.443Z,97003.75
2022-09-12T04:26:22.025Z,96997.53
2022-09-12T04:28:48.716Z,97004.56
2022-09-12T04:31:22.596Z,97008.81
2022-09-12T04:34:01.178Z,97010.28
2022-09-12T04:36:34.416Z,97015.72
2022-09-12T04:39:02.500Z,97016.84
2022-09-12T04:41:34.156Z,97004.84
2022-09-12T04:44:05.512Z,97005.63
2022-09-12T04:46:35.604Z,97009.09
2022-09-12T04:49:05.684Z,97007.66
2022-09-12T04:51:35.916Z,97011.97
2022-09-12T04:54:08.506Z,97005.94
2022-09-12T04:56:41.656Z,97009.41
2022-09-12T04:59:09.171Z,97013.72
2022-09-12T05:01:38.016Z,96995.84
2022-09-12T05:04:04.818Z,97005.50
2022-09-12T05:06:34.551Z,97018.66
2022-09-12T05:09:08.500Z,97016.22
2022-09-12T05:12:02.573Z,97017.47
2022-09-12T05:14:24.518Z,97014.63
2022-09-12T05:16:51.139Z,97015.66
2022-09-12T05:19:17.776Z,97015.91
2022-09-12T05:21:44.442Z,97021.22
2022-09-12T05:24:11.609Z,97018.34
2022-09-12T05:26:38.433Z,97020.66
2022-09-12T05:29:07.801Z,97013.09
2022-09-12T05:31:35.006Z,97012.44
2022-09-12T05:34:05.915Z,97030.16
2022-09-12T05:36:33.108Z,97028.69
2022-09-12T05:39:03.798Z,97032.59
2022-09-12T05:41:34.401Z,97039.13
2022-09-12T05:44:07.717Z,97034.81
2022-09-12T05:46:40.007Z,97039.59
2022-09-12T05:49:11.121Z,97042.53
2022-09-12T05:51:42.542Z,97031.56
2022-09-12T05:54:13.841Z,97047.75
2022-09-12T05:56:42.800Z,97035.53
2022-09-12T05:59:21.229Z,97046.94
2022-09-12T06:01:48.659Z,97044.41
2022-09-12T06:04:16.117Z,97038.69
2022-09-12T06:06:48.845Z,97055.78
2022-09-12T06:09:16.907Z,97063.78
2022-09-12T06:11:45.189Z,97052.25
2022-09-12T06:14:14.024Z,97067.66
2022-09-12T06:16:40.889Z,97062.72
2022-09-12T06:19:19.117Z,97055.41
2022-09-12T06:21:47.612Z,97065.09
2022-09-12T06:24:16.816Z,97060.00
2022-09-12T06:26:43.866Z,97048.97
2022-09-12T06:29:11.673Z,97055.41
2022-09-12T06:31:41.845Z,97053.47
2022-09-12T06:34:11.536Z,97050.81
2022-09-12T06:36:41.095Z,97053.53
2022-09-12T06:39:11.432Z,97045.78
2022-09-12T06:41:43.527Z,97044.00
2022-09-12T06:44:17.879Z,97047.28
2022-09-12T06:46:45.276Z,97042.88
2022-09-12T06:49:12.420Z,97055.53
2022-09-12T06:51:44.914Z,97049.72
2022-09-12T06:54:17.831Z,97066.63
2022-09-12T06:56:46.770Z,97058.03
2022-09-12T06:59:13.608Z,97053.09
2022-09-12T07:01:45.562Z,97059.94
2022-09-12T07:04:12.142Z,97054.41
2022-09-12T07:06:44.892Z,97059.31
2022-09-12T07:09:14.160Z,97050.63
2022-09-12T07:11:42.364Z,97052.63
2022-09-12T07:14:12.276Z,97032.56
2022-09-12T07:16:38.872Z,97043.66
2022-09-12T07:19:08.081Z,97045.84
2022-09-12T07:21:39.987Z,97034.28
2022-09-12T07:24:10.634Z,97034.47
2022-09-12T07:26:41.105Z,97043.63
2022-09-12T07:29:35.483Z,97046.97
2022-09-12T07:32:02.554Z,97049.56
2022-09-12T07:34:29.139Z,97041.53
2022-09-12T07:36:58.688Z,97030.72
2022-09-12T07:39:25.477Z,97043.56
2022-09-12T07:41:54.743Z,97038.16
2022-09-12T07:44:22.084Z,97022.00
2022-09-12T07:46:53.157Z,97030.50
2022-09-12T07:49:22.455Z,97029.63
2022-09-12T07:51:51.301Z,97030.59
2022-09-12T07:54:18.744Z,97022.78
2022-09-12T07:56:45.923Z,97022.88
2022-09-12T07:59:25.356Z,97029.47
2022-09-12T08:02:01.424Z,97025.81
2022-09-12T08:04:27.932Z,97022.06
2022-09-12T08:06:56.788Z,97030.63
2022-09-12T08:09:23.723Z,97009.22
2022-09-12T08:11:50.236Z,97026.88
2022-09-12T08:14:18.157Z,97031.63
2022-09-12T08:16:44.703Z,97026.88
2022-09-12T08:19:12.052Z,97027.81
2022-09-12T08:21:43.147Z,97023.84
2022-09-12T08:24:12.381Z,97031.63
2022-09-12T08:26:41.412Z,97018.38
2022-09-12T08:29:13.165Z,97025.09
2022-09-12T08:31:41.734Z,97023.56
2022-09-12T08:34:10.475Z,97036.50
2022-09-12T08:36:39.801Z,97028.31
2022-09-12T08:39:07.579Z,97027.22
2022-09-12T08:42:04.997Z,97038.19
2022-09-12T08:44:43.680Z,97036.97
2022-09-12T08:47:25.782Z,97034.06
2022-09-12T08:50:10.870Z,97034.66
2022-09-12T08:53:03.419Z,97031.66
2022-09-12T08:55:35.619Z,97029.84
2022-09-12T08:58:18.506Z,97021.41
2022-09-12T09:01:10.018Z,97029.25
2022-09-12T09:04:20.598Z,97024.53
2022-09-12T09:07:05.208Z,97025.22
2022-09-12T09:09:53.682Z,97024.41
2022-09-12T09:12:45.123Z,97020.53
2022-09-12T09:15:22.252Z,97032.69
2022-09-12T09:17:54.118Z,97031.00
2022-09-12T09:20:23.693Z,97022.72
2022-09-12T09:22:57.086Z,97032.63
2022-09-12T09:25:36.726Z,97003.91
2022-09-12T09:28:14.426Z,97020.81
2022-09-12T09:30:43.548Z,97008.34
2022-09-12T09:33:24.206Z,97008.59
2022-09-12T09:36:18.679Z,97020.88
2022-09-12T09:38:49.782Z,97016.22
2022-09-12T09:41:42.303Z,97011.41
2022-09-12T09:44:09.008Z,97003.16
2022-09-12T09:46:38.774Z,97009.97
2022-09-12T09:49:09.546Z,97005.53
2022-09-12T09:51:41.940Z,97015.28
2022-09-12T09:54:21.247Z,97008.31
2022-09-12T09:56:50.420Z,97002.69
2022-09-12T09:59:30.144Z,97000.44
2022-09-12T10:02:05.938Z,96993.88
2022-09-12T10:04:43.275Z,96998.06
2022-09-12T10:07:19.896Z,96994.66
2022-09-12T10:10:18.126Z,97008.28
2022-09-12T10:12:47.748Z,97004.69
2022-09-12T10:15:22.786Z,96996.88
2022-09-12T10:17:50.761Z,96992.16
2022-09-12T10:20:40.025Z,96988.44
2022-09-12T10:23:18.797Z,96984.44
2022-09-12T10:25:56.979Z,96980.13
2022-09-12T10:28:34.344Z,96979.88
2022-09-12T10:31:06.166Z,96976.63
2022-09-12T10:33:42.123Z,96962.59
2022-09-12T10:36:11.396Z,96969.13
2022-09-12T10:38:59.203Z,96962.25
2022-09-12T10:41:27.956Z,96964.25
2022-09-12T10:44:09.892Z,96963.47
2022-09-12T10:46:36.797Z,96967.28
2022-09-12T10:49:13.617Z,96960.78
2022-09-12T10:51:43.162Z,96956.25
2022-09-12T10:54:13.241Z,96954.66
2022-09-12T10:56:57.553Z,96954.56
2022-09-12T10:59:39.087Z,96951.59
2022-09-12T11:02:25.608Z,96940.47
2022-09-12T11:05:11.063Z,96932.81
2022-09-12T11:07:40.584Z,96944.66
2022-09-12T11:10:18.884Z,96943.94
2022-09-12T11:13:06.099Z,96941.63
2022-09-12T11:15:38.600Z,96937.41
2022-09-12T11:18:23.677Z,96934.59
2022-09-12T11:21:15.034Z,96941.59
2022-09-12T11:24:12.581Z,96937.38
2022-09-12T11:27:05.682Z,96936.75
2022-09-12T11:29:47.250Z,96932.09
2022-09-12T11:32:16.967Z,96934.41
2022-09-12T11:35:17.970Z,96923.78
2022-09-12T11:37:46.812Z,96927.44
2022-09-12T11:40:20.595Z,96920.19
2022-09-12T11:42:51.948Z,96916.38
2022-09-12T11:45:57.120Z,96916.38
2022-09-12T11:48:38.547Z,96917.72
2022-09-12T11:51:16.122Z,96917.34
2022-09-12T11:53:49.980Z,96917.09
2022-09-12T11:56:22.319Z,96913.81
2022-09-12T11:59:03.210Z,96912.03
2022-09-12T12:01:44.970Z,96905.75
2022-09-12T12:04:24.958Z,96899.19
2022-09-12T12:07:03.323Z,96901.53
2022-09-12T12:09:31.367Z,96899.06
2022-09-12T12:12:01.207Z,96905.03
2022-09-12T12:14:38.823Z,96898.00
2022-09-12T12:17:13.995Z,96895.63
2022-09-12T12:19:41.949Z,96893.94
2022-09-12T12:22:17.083Z,96893.50
2022-09-12T12:25:05.163Z,96898.06
2022-09-12T12:27:49.094Z,96888.56
2022-09-12T12:30:30.875Z,96882.34
2022-09-12T12:33:18.223Z,96886.09
2022-09-12T12:36:02.449Z,96871.94
2022-09-12T12:38:39.154Z,96870.22
2022-09-12T12:41:17.987Z,96870.97
2022-09-12T12:43:48.375Z,96874.81
2022-09-12T12:46:19.320Z,96866.53
2022-09-12T12:48:58.232Z,96862.03
2022-09-12T12:51:36.192Z,96859.28
2022-09-12T12:54:11.087Z,96856.28
2022-09-12T12:56:42.560Z,96849.97
2022-09-12T12:59:25.822Z,96847.72
2022-09-12T13:02:01.053Z,96841.69
2022-09-12T13:04:32.898Z,96838.94
2022-09-12T13:06:59.486Z,96835.16
2022-09-12T13:09:29.986Z,96826.38
2022-09-12T13:12:09.257Z,96831.91
2022-09-12T13:14:55.345Z,96830.91
2022-09-12T13:17:30.510Z,96816.31
2022-09-12T13:20:29.668Z,96821.09
2022-09-12T13:22:57.122Z,96820.59
2022-09-12T13:25:23.970Z,96824.84
2022-09-12T13:28:07.678Z,96819.31
2022-09-12T13:30:39.440Z,96820.06
2022-09-12T13:33:18.472Z,96817.31
2022-09-12T13:36:03.846Z,96812.28
2022-09-12T13:38:55.146Z,96816.06
2022-09-12T13:41:46.468Z,96811.44
2022-09-12T13:44:21.755Z,96802.88
2022-09-12T13:46:54.075Z,96802.88
2022-09-12T13:49:26.874Z,96802.06
2022-09-12T13:52:06.878Z,96787.22
2022-09-12T13:54:37.930Z,96797.31
2022-09-12T13:57:05.506Z,96785.28
2022-09-12T13:59:45.311Z,96786.75
2022-09-12T14:02:21.010Z,96781.22
2022-09-12T14:05:11.969Z,96782.75
2022-09-12T14:07:44.806Z,96781.97
2022-09-12T14:10:21.053Z,96767.88
2022-09-12T14:12:50.882Z,96764.59
2022-09-12T14:15:25.653Z,96763.59
2022-09-12T14:18:01.461Z,96774.41
2022-09-12T14:20:36.288Z,96768.31
2022-09-12T14:23:19.032Z,96759.25
2022-09-12T14:25:49.843Z,96757.75
2022-09-12T14:28:23.183Z,96766.56
2022-09-12T14:31:05.217Z,96771.34
2022-09-12T14:33:49.237Z,96768.03
2022-09-12T14:36:33.818Z,96763.25
2022-09-12T14:39:07.352Z,96757.47
2022-09-12T14:41:41.091Z,96758.75
2022-09-12T14:44:16.786Z,96748.34
2022-09-12T14:46:44.709Z,96756.56
2022-09-12T14:49:19.865Z,96753.19
2022-09-12T14:51:52.295Z,96747.16
2022-09-12T14:54:27.686Z,96749.59
2022-09-12T14:57:00.890Z,96747.91
2022-09-12T14:59:30.318Z,96748.00
2022-09-12T15:02:21.910Z,96736.72
2022-09-12T15:05:03.707Z,96737.25
2022-09-12T15:07:42.697Z,96736.28
2022-09-12T15:10:18.825Z,96733.94
2022-09-12T15:12:48.183Z,96737.81
2022-09-12T15:15:23.215Z,96735.63
2022-09-12T15:17:49.791Z,96727.41
2022-09-12T15:20:16.805Z,96719.78
2022-09-12T15:22:45.965Z,96730.59
2022-09-12T15:25:18.074Z,96739.16
2022-09-12T15:27:47.474Z,96725.53
2022-09-12T15:30:14.085Z,96732.06
2022-09-12T15:32:46.219Z,96723.97
2022-09-12T15:35:17.994Z,96726.75
2022-09-12T15:37:49.254Z,96725.81
2022-09-12T15:40:16.253Z,96731.28
2022-09-12T15:42:47.462Z,96719.97
2022-09-12T15:45:21.889Z,96721.91
2022-09-12T15:47:50.980Z,96724.44
2022-09-12T15:50:19.626Z,96720.84
2022-09-12T15:52:46.800Z,96725.63
2022-09-12T15:55:23.028Z,96726.00
2022-09-12T15:57:50.645Z,96719.13
2022-09-12T16:00:18.479Z,96723.41
2022-09-12T16:02:54.468Z,96722.66
2022-09-12T16:05:24.357Z,96720.09
2022-09-12T16:07:57.644Z,96717.31
2022-09-12T16:10:30.139Z,96716.03
2022-09-12T16:12:57.624Z,96715.91
2022-09-12T16:15:27.397Z,96690.47
2022-09-12T16:17:58.712Z,96704.97
2022-09-12T16:20:25.364Z,96702.94
2022-09-12T16:22:52.053Z,96704.97
2022-09-12T16:25:18.733Z,96704.00
2022-09-12T16:27:47.825Z,96698.56
2022-09-12T16:30:14.523Z,96704.56
2022-09-12T16:32:46.645Z,96699.81
2022-09-12T16:35:13.201Z,96705.97
2022-09-12T16:37:39.776Z,96697.66
2022-09-12T16:40:07.466Z,96690.84
2022-09-12T16:42:34.139Z,96687.13
2022-09-12T16:45:05.457Z,96693.72
2022-09-12T16:47:32.948Z,96689.94
2022-09-12T16:49:59.669Z,96691.78
2022-09-12T16:52:28.774Z,96687.00
2022-09-12T16:54:55.429Z,96688.03
2022-09-12T16:57:23.425Z,96682.50
2022-09-12T16:59:52.247Z,96692.06
2022-09-12T17:02:18.856Z,96689.06
2022-09-12T17:04:45.428Z,96697.38
2022-09-12T17:07:16.558Z,96682.75
2022-09-12T17:09:47.364Z,96687.03
2022-09-12T17:12:16.883Z,96694.81
2022-09-12T17:14:43.458Z,96678.22
2022-09-12T17:17:10.192Z,96677.97
2022-09-12T17:19:37.086Z,96681.94
2022-09-12T17:22:03.714Z,96684.44
2022-09-12T17:24:33.049Z,96673.13
2022-09-12T17:26:59.761Z,96693.41
2022-09-12T17:29:26.638Z,96689.84
2022-09-12T17:31:55.010Z,96676.00
2022-09-12T17:34:21.599Z,96676.22
2022-09-12T17:36:48.534Z,96679.47
2022-09-12T17:39:17.601Z,96684.38
2022-09-12T17:41:46.010Z,96689.41
2022-09-12T17:44:14.979Z,96676.53
2022-09-12T17:46:42.381Z,96689.03
2022-09-12T17:49:15.471Z,96692.31
2022-09-12T17:51:43.835Z,96695.28
2022-09-12T17:54:17.944Z,96671.88
2022-09-12T17:56:46.662Z,96692.19
2022-09-12T17:59:18.985Z,96687.84
2022-09-12T18:02:04.282Z,96690.81
2022-09-12T18:04:33.793Z,96700.00
2022-09-12T18:07:02.575Z,96706.53
2022-09-12T18:09:30.671Z,96708.06
2022-09-12T18:11:57.476Z,96705.03
2022-09-12T18:14:24.916Z,96710.53
2022-09-12T18:16:54.098Z,96707.66
2022-09-12T18:19:20.785Z,96709.59
2022-09-12T18:21:52.078Z,96714.19
2022-09-12T18:24:18.633Z,96721.41
2022-09-12T18:26:45.382Z,96723.63
2022-09-12T18:29:13.239Z,96726.72
2022-09-12T18:31:42.741Z,96723.69
2022-09-12T18:34:13.707Z,96724.84
2022-09-12T18:36:42.263Z,96724.41
2022-09-12T18:39:09.454Z,96733.47
2022-09-12T18:41:39.164Z,96723.75
2022-09-12T18:44:06.734Z,96728.69
2022-09-12T18:46:37.421Z,96719.59
2022-09-12T18:49:09.481Z,96725.84
2022-09-12T18:51:41.780Z,96724.78
2022-09-12T18:54:13.178Z,96733.06
2022-09-12T18:56:43.492Z,96732.59
2022-09-12T18:59:12.859Z,96733.63
2022-09-12T19:01:42.243Z,96736.50
2022-09-12T19:04:11.213Z,96737.16
2022-09-12T19:06:42.082Z,96733.47
2022-09-12T19:09:10.425Z,96725.03
2022-09-12T19:11:39.442Z,96726.13
2022-09-12T19:14:09.619Z,96722.63
2022-09-12T19:16:36.789Z,96731.31
2022-09-12T19:19:06.180Z,96725.84
2022-09-12T19:21:34.370Z,96720.44
2022-09-12T19:24:04.226Z,96725.06
2022-09-12T19:26:33.873Z,96726.00
2022-09-12T19:29:03.035Z,96730.66
2022-09-12T19:31:31.004Z,96736.81
2022-09-12T19:34:05.670Z,96739.84
2022-09-12T19:36:47.871Z,96732.34
2022-09-12T19:39:16.492Z,96743.31
2022-09-12T19:41:43.723Z,96737.53
2022-09-12T19:44:11.491Z,96740.78
2022-09-12T19:46:40.488Z,96734.66
2022-09-12T19:49:07.496Z,96738.09
2022-09-12T19:51:36.959Z,96731.72
2022-09-12T19:54:04.089Z,96728.97
2022-09-12T19:56:32.957Z,96736.44
2022-09-12T19:58:59.626Z,96734.25
2022-09-12T20:01:31.529Z,96744.06
2022-09-12T20:04:00.770Z,96736.47
2022-09-12T20:06:29.627Z,96744.44
2022-09-12T20:08:59.419Z,96748.00
2022-09-12T20:11:26.040Z,96743.47
2022-09-12T20:13:53.396Z,96746.84
2022-09-12T20:16:29.352Z,96752.16
2022-09-12T20:19:02.332Z,96751.56
2022-09-12T20:21:31.940Z,96750.22
2022-09-12T20:24:11.916Z,96745.44
2022-09-12T20:26:38.982Z,96751.94
2022-09-12T20:29:06.776Z,96746.47
2022-09-12T20:31:36.811Z,96748.00
2022-09-12T20:34:04.889Z,96743.44
2022-09-12T20:36:34.626Z,96753.19
2022-09-12T20:39:02.542Z,96740.41
2022-09-12T20:41:34.458Z,96738.31
2022-09-12T20:44:01.277Z,96754.09
2022-09-12T20:46:28.907Z,96755.31
2022-09-12T20:48:58.786Z,96734.34
2022-09-12T20:51:30.375Z,96751.84
2022-09-12T20:54:04.672Z,96746.69
2022-09-12T20:56:39.265Z,96742.78
2022-09-12T20:59:05.871Z,96739.16
2022-09-12T21:01:33.013Z,96733.84
2022-09-12T21:04:02.139Z,96741.44
2022-09-12T21:06:29.055Z,96744.94
2022-09-12T21:08:59.878Z,96746.16
2022-09-12T21:11:29.284Z,96741.59
2022-09-12T21:13:58.051Z,96736.44
2022-09-12T21:16:26.930Z,96739.19
2022-09-12T21:18:59.749Z,96736.66
2022-09-12T21:21:27.023Z,96739.09
2022-09-12T21:23:57.174Z,96734.97
2022-09-12T21:26:26.747Z,96732.25
2022-09-12T21:28:53.269Z,96742.31
2022-09-12T21:31:24.718Z,96735.94
2022-09-12T21:33:56.313Z,96733.22
2022-09-12T21:36:24.424Z,96732.13
2022-09-12T21:38:50.969Z,96730.16
2022-09-12T21:41:18.428Z,96733.34
2022-09-12T21:43:47.601Z,96728.66
2022-09-12T21:46:14.310Z,96736.69
2022-09-12T21:48:46.175Z,96742.66
2022-09-12T21:51:12.695Z,96745.09
2022-09-12T21:53:39.266Z,96741.31
2022-09-12T21:56:08.678Z,96745.88
2022-09-12T21:58:36.323Z,96729.28
2022-09-12T22:01:03.572Z,96737.47
2022-09-12T22:03:32.516Z,96744.06
2022-09-12T22:06:04.840Z,96750.84
2022-09-12T22:08:33.564Z,96747.97
2022-09-12T22:11:07.951Z,96742.34
2022-09-12T22:13:35.366Z,96739.31
2022-09-12T22:16:03.318Z,96741.28
2022-09-12T22:18:35.266Z,96739.47
2022-09-12T22:21:12.807Z,96740.06
2022-09-12T22:23:58.300Z,96726.38
2022-09-12T22:26:27.923Z,96736.88
2022-09-12T22:28:54.670Z,96727.31
2022-09-12T22:31:23.657Z,96730.34
2022-09-12T22:33:54.916Z,96726.38
2022-09-12T22:36:21.434Z,96720.78
2022-09-12T22:38:48.054Z,96711.34
2022-09-12T22:41:19.354Z,96721.38
2022-09-12T22:43:46.040Z,96719.41
2022-09-12T22:46:14.909Z,96718.94
2022-09-12T22:48:43.935Z,96731.72
2022-09-12T22:51:11.000Z,96721.06
2022-09-12T22:53:37.641Z,96729.25
2022-09-12T22:56:05.597Z,96733.22
2022-09-12T22:58:33.808Z,96729.44
2022-09-12T23:01:00.481Z,96728.66
2022-09-12T23:03:27.530Z,96732.75
2022-09-12T23:05:54.162Z,96728.34
2022-09-12T23:08:20.753Z,96730.47
2022-09-12T23:10:47.376Z,96726.53
2022-09-12T23:13:14.135Z,96725.00
2022-09-12T23:15:43.042Z,96711.63
2022-09-12T23:18:09.685Z,96713.31
2022-09-12T23:20:36.212Z,96718.31
2022-09-12T23:23:02.894Z,96717.88
2022-09-12T23:25:32.002Z,96716.34
2022-09-12T23:27:58.696Z,96715.56
2022-09-12T23:30:28.170Z,96698.72
2022-09-12T23:32:58.029Z,96709.50
2022-09-12T23:35:27.179Z,96701.91
2022-09-12T23:37:53.675Z,96693.09
2022-09-12T23:40:20.285Z,96686.88
2022-09-12T23:42:49.229Z,96694.75
2022-09-12T23:45:15.800Z,96704.94
2022-09-12T23:47:44.955Z,96692.47
2022-09-12T23:50:13.641Z,96710.06
2022-09-12T23:52:40.124Z,96700.97
2022-09-12T23:55:07.392Z,96703.25
2022-09-12T23:57:33.946Z,96692.00
